Kennebunkport, ME (04046)

7:53 PM EDT on August 03, 2015 (GMT -0400)
APRSWXNET | | Change Station
CLOSE
Current Station
Personal Weather Station
Location: Kennebunkport, ME
Elevation: 98 ft
Nearby Weather Stations
Active Advisory: Severe Thunderstorm Warning

Elev 98 ft 43.37 °N, 70.47 °W | Updated 26 minutes ago

Partly Cloudy
Partly Cloudy
71 °F
Feels Like 71 °F
N
0
Wind Variable Wind from North
Gusts 6.0 mph

Today
High -- | Low -- °F
--% Chance of Precip.
Yesterday
High -- | Low -- °F
Precip. -- in
5:33 AM 8:01 PM
Waning Gibbous, 83% visible
Pressure 29.76 in
Visibility 10.0 miles
Clouds Mostly Cloudy 7500 ft
Heat Index 71 °F
Dew Point 65 °F
Humidity 81%
Rainfall in
Snow Depth Not available.
UV 0 out of 12
Pollen 5.60 out of 12
Air Quality Not available.
Flu Activity Not available.
METAR KSFM 032335Z AUTO 18004KT 10SM BKN075 26/16 A2976 RMK AO1

More Conditions Fewer Conditions

Pressure 29.76 in
Visibility 10.0 miles
Clouds Mostly Cloudy 7500 ft
Heat Index 71 °F
Dew Point 65 °F
Humidity 81%
Rainfall in
Snow Depth Not available.
UV 0 out of 12
Pollen 5.60 out of 12
Air Quality Not available.
Flu Activity Not available.
METAR KSFM 032335Z AUTO 18004KT 10SM BKN075 26/16 A2976 RMK AO1

More Conditions Fewer Conditions

10-Day Weather Forecast

×

Almanac

Astronomy

Aug. 03, 2015 Rise Set
Actual Time
Civil Twilight
Nautical Twilight
Astronomical Twilight
Moon
Length of Visible Light
Length of Day
Tomorrow will be .
, % of the Moon is Illuminated

Today's Extremes

State Highs State Lows

Community

WunderPhotos

Upload Photos

1,843,791 photos uploaded!

WunderBlogs® & News

Nearby

Air Quality

  Air Quality AQ Index Pollutant
Not available.

Snow Depth

Station Depth Elevation

Earthquake Activity

City Distance Mag. Time & Date
Minimum magnitude displayed is 2.5.

Coastal Water Temperatures

Place Temperature

Stations

Nearby Weather Stations

Station Location Temp. Windchill Dew Point Humidity Wind Precip. Elev Updated Type
                   
Severe Thunderstorm Warning
Statement as of 7:46 PM EDT on August 03, 2015

... The Severe Thunderstorm Warning for southwestern Oxford...
northwestern York and northwestern Cumberland counties is
cancelled...

the storms which prompted the warning have moved out of the area.
Therefore the warning has been cancelled.

Lat... Lon 4397 7094 4425 7096 4452 7101 4467 7076
      4432 7056 4385 7072 4378 7097
time... Mot... loc 2345z 257deg 44kt 4453 7052 4418 7047 4386 7060